sensor_id;sensor_type;location;lat;lon;timestamp;P1;durP1;ratioP1;P2;durP2;ratioP2
70588;SDS011;58152;49.202;18.744;2023-06-22T00:01:04;8.30;;;4.53;;
70588;SDS011;58152;49.202;18.744;2023-06-22T00:03:30;5.55;;;3.70;;
70588;SDS011;58152;49.202;18.744;2023-06-22T00:05:55;4.28;;;3.05;;
70588;SDS011;58152;49.202;18.744;2023-06-22T00:08:21;5.03;;;3.25;;
70588;SDS011;58152;49.202;18.744;2023-06-22T00:10:47;4.13;;;3.08;;
70588;SDS011;58152;49.202;18.744;2023-06-22T00:13:13;4.75;;;3.13;;
70588;SDS011;58152;49.202;18.744;2023-06-22T00:15:39;8.55;;;3.45;;
70588;SDS011;58152;49.202;18.744;2023-06-22T00:18:07;3.70;;;2.70;;
70588;SDS011;58152;49.202;18.744;2023-06-22T00:20:33;4.40;;;2.80;;
70588;SDS011;58152;49.202;18.744;2023-06-22T00:23:02;4.32;;;3.35;;
70588;SDS011;58152;49.202;18.744;2023-06-22T00:25:35;3.85;;;2.90;;
70588;SDS011;58152;49.202;18.744;2023-06-22T00:28:01;4.38;;;3.42;;
70588;SDS011;58152;49.202;18.744;2023-06-22T00:30:28;6.03;;;3.45;;
70588;SDS011;58152;49.202;18.744;2023-06-22T00:32:53;5.72;;;3.20;;
70588;SDS011;58152;49.202;18.744;2023-06-22T00:35:19;6.60;;;3.33;;
70588;SDS011;58152;49.202;18.744;2023-06-22T00:37:44;5.15;;;3.25;;
70588;SDS011;58152;49.202;18.744;2023-06-22T00:40:09;4.15;;;2.95;;
70588;SDS011;58152;49.202;18.744;2023-06-22T00:42:36;3.47;;;2.90;;
70588;SDS011;58152;49.202;18.744;2023-06-22T00:45:03;5.47;;;3.53;;
70588;SDS011;58152;49.202;18.744;2023-06-22T00:47:28;4.18;;;3.10;;
70588;SDS011;58152;49.202;18.744;2023-06-22T00:49:54;5.20;;;3.40;;
70588;SDS011;58152;49.202;18.744;2023-06-22T00:52:20;4.53;;;3.10;;
70588;SDS011;58152;49.202;18.744;2023-06-22T00:54:51;5.10;;;3.40;;
70588;SDS011;58152;49.202;18.744;2023-06-22T00:57:17;4.28;;;3.30;;
70588;SDS011;58152;49.202;18.744;2023-06-22T00:59:47;3.80;;;3.40;;
70588;SDS011;58152;49.202;18.744;2023-06-22T01:02:13;5.30;;;2.90;;
70588;SDS011;58152;49.202;18.744;2023-06-22T01:04:39;5.35;;;3.38;;
70588;SDS011;58152;49.202;18.744;2023-06-22T01:07:10;4.22;;;3.05;;
70588;SDS011;58152;49.202;18.744;2023-06-22T01:12:37;5.22;;;3.15;;
70588;SDS011;58152;49.202;18.744;2023-06-22T01:15:23;4.80;;;3.37;;
70588;SDS011;58152;49.202;18.744;2023-06-22T01:17:54;4.68;;;3.10;;
70588;SDS011;58152;49.202;18.744;2023-06-22T01:20:23;5.70;;;3.45;;
70588;SDS011;58152;49.202;18.744;2023-06-22T01:31:13;5.53;;;3.50;;
70588;SDS011;58152;49.202;18.744;2023-06-22T01:33:43;4.75;;;3.25;;
70588;SDS011;58152;49.202;18.744;2023-06-22T01:36:10;5.82;;;3.65;;
70588;SDS011;58152;49.202;18.744;2023-06-22T01:38:37;4.72;;;3.35;;
70588;SDS011;58152;49.202;18.744;2023-06-22T01:41:03;4.38;;;3.17;;
70588;SDS011;58152;49.202;18.744;2023-06-22T01:43:29;5.50;;;3.75;;
70588;SDS011;58152;49.202;18.744;2023-06-22T01:45:55;5.07;;;2.88;;
70588;SDS011;58152;49.202;18.744;2023-06-22T01:48:22;4.13;;;3.08;;
70588;SDS011;58152;49.202;18.744;2023-06-22T01:50:49;6.95;;;3.20;;
70588;SDS011;58152;49.202;18.744;2023-06-22T01:53:14;4.88;;;3.60;;
70588;SDS011;58152;49.202;18.744;2023-06-22T01:55:40;3.72;;;2.92;;
70588;SDS011;58152;49.202;18.744;2023-06-22T01:58:06;3.85;;;3.10;;
70588;SDS011;58152;49.202;18.744;2023-06-22T02:00:31;3.72;;;3.20;;
70588;SDS011;58152;49.202;18.744;2023-06-22T02:03:11;4.03;;;2.60;;
70588;SDS011;58152;49.202;18.744;2023-06-22T02:05:49;6.28;;;2.92;;
70588;SDS011;58152;49.202;18.744;2023-06-22T02:08:24;4.40;;;3.10;;
70588;SDS011;58152;49.202;18.744;2023-06-22T02:13:19;4.07;;;3.15;;
70588;SDS011;58152;49.202;18.744;2023-06-22T02:15:45;4.13;;;3.20;;
70588;SDS011;58152;49.202;18.744;2023-06-22T02:18:12;5.75;;;3.00;;
70588;SDS011;58152;49.202;18.744;2023-06-22T02:20:38;3.25;;;2.95;;
70588;SDS011;58152;49.202;18.744;2023-06-22T02:23:04;3.92;;;3.53;;
70588;SDS011;58152;49.202;18.744;2023-06-22T02:25:31;4.95;;;3.03;;
70588;SDS011;58152;49.202;18.744;2023-06-22T02:27:57;5.55;;;3.53;;
70588;SDS011;58152;49.202;18.744;2023-06-22T02:30:23;4.88;;;3.55;;
70588;SDS011;58152;49.202;18.744;2023-06-22T02:32:48;4.78;;;3.67;;
70588;SDS011;58152;49.202;18.744;2023-06-22T02:35:14;6.13;;;3.75;;
70588;SDS011;58152;49.202;18.744;2023-06-22T02:37:40;4.25;;;3.33;;
70588;SDS011;58152;49.202;18.744;2023-06-22T02:40:07;3.60;;;3.28;;
70588;SDS011;58152;49.202;18.744;2023-06-22T02:42:36;6.63;;;3.78;;
70588;SDS011;58152;49.202;18.744;2023-06-22T02:45:02;5.80;;;3.45;;
70588;SDS011;58152;49.202;18.744;2023-06-22T02:47:28;18.20;;;3.95;;
70588;SDS011;58152;49.202;18.744;2023-06-22T02:49:53;5.28;;;3.72;;
70588;SDS011;58152;49.202;18.744;2023-06-22T02:52:19;6.13;;;3.78;;
70588;SDS011;58152;49.202;18.744;2023-06-22T02:54:44;4.43;;;3.83;;
70588;SDS011;58152;49.202;18.744;2023-06-22T02:57:11;4.05;;;3.65;;
70588;SDS011;58152;49.202;18.744;2023-06-22T02:59:38;5.60;;;4.05;;
70588;SDS011;58152;49.202;18.744;2023-06-22T03:02:07;5.78;;;4.70;;
70588;SDS011;58152;49.202;18.744;2023-06-22T03:04:34;6.85;;;4.32;;
70588;SDS011;58152;49.202;18.744;2023-06-22T03:07:00;5.03;;;4.13;;
70588;SDS011;58152;49.202;18.744;2023-06-22T03:09:26;4.85;;;4.18;;
70588;SDS011;58152;49.202;18.744;2023-06-22T03:11:53;6.13;;;4.30;;
70588;SDS011;58152;49.202;18.744;2023-06-22T03:14:18;3.75;;;3.33;;
70588;SDS011;58152;49.202;18.744;2023-06-22T03:16:44;6.28;;;4.35;;
70588;SDS011;58152;49.202;18.744;2023-06-22T03:19:12;4.53;;;3.50;;
70588;SDS011;58152;49.202;18.744;2023-06-22T03:21:38;4.68;;;3.22;;
70588;SDS011;58152;49.202;18.744;2023-06-22T03:24:04;3.88;;;2.90;;
70588;SDS011;58152;49.202;18.744;2023-06-22T03:26:30;6.55;;;3.35;;
70588;SDS011;58152;49.202;18.744;2023-06-22T03:28:55;5.38;;;3.85;;
70588;SDS011;58152;49.202;18.744;2023-06-22T03:31:21;6.55;;;3.63;;
70588;SDS011;58152;49.202;18.744;2023-06-22T03:33:50;5.15;;;2.97;;
70588;SDS011;58152;49.202;18.744;2023-06-22T03:36:18;5.00;;;3.30;;
70588;SDS011;58152;49.202;18.744;2023-06-22T03:38:51;100.05;;;89.45;;
70588;SDS011;58152;49.202;18.744;2023-06-22T03:41:16;246.30;;;211.52;;
70588;SDS011;58152;49.202;18.744;2023-06-22T03:43:42;197.77;;;171.00;;
70588;SDS011;58152;49.202;18.744;2023-06-22T03:46:07;63.28;;;53.08;;
70588;SDS011;58152;49.202;18.744;2023-06-22T03:48:33;25.25;;;18.92;;
70588;SDS011;58152;49.202;18.744;2023-06-22T03:50:59;10.30;;;8.27;;
70588;SDS011;58152;49.202;18.744;2023-06-22T03:53:24;5.95;;;4.63;;
70588;SDS011;58152;49.202;18.744;2023-06-22T03:55:51;5.90;;;4.25;;
70588;SDS011;58152;49.202;18.744;2023-06-22T03:58:17;7.00;;;4.43;;
70588;SDS011;58152;49.202;18.744;2023-06-22T04:00:44;4.93;;;3.63;;
70588;SDS011;58152;49.202;18.744;2023-06-22T04:03:11;7.85;;;4.22;;
70588;SDS011;58152;49.202;18.744;2023-06-22T04:05:38;7.07;;;4.97;;
70588;SDS011;58152;49.202;18.744;2023-06-22T04:08:04;6.57;;;4.95;;
70588;SDS011;58152;49.202;18.744;2023-06-22T04:10:30;9.38;;;5.03;;
70588;SDS011;58152;49.202;18.744;2023-06-22T04:12:55;7.43;;;4.63;;
70588;SDS011;58152;49.202;18.744;2023-06-22T04:15:24;6.30;;;4.82;;
70588;SDS011;58152;49.202;18.744;2023-06-22T04:17:49;7.28;;;5.13;;
70588;SDS011;58152;49.202;18.744;2023-06-22T04:20:15;8.18;;;4.97;;
70588;SDS011;58152;49.202;18.744;2023-06-22T04:22:40;8.43;;;5.22;;
70588;SDS011;58152;49.202;18.744;2023-06-22T04:25:06;6.20;;;5.00;;
70588;SDS011;58152;49.202;18.744;2023-06-22T04:27:34;6.43;;;5.57;;
70588;SDS011;58152;49.202;18.744;2023-06-22T04:30:05;6.57;;;5.57;;
70588;SDS011;58152;49.202;18.744;2023-06-22T04:32:32;8.07;;;6.10;;
70588;SDS011;58152;49.202;18.744;2023-06-22T04:35:04;7.80;;;6.35;;
70588;SDS011;58152;49.202;18.744;2023-06-22T04:37:31;9.20;;;6.82;;
70588;SDS011;58152;49.202;18.744;2023-06-22T04:39:57;12.15;;;6.45;;
70588;SDS011;58152;49.202;18.744;2023-06-22T04:42:22;8.77;;;6.20;;
70588;SDS011;58152;49.202;18.744;2023-06-22T04:44:48;9.32;;;7.43;;
70588;SDS011;58152;49.202;18.744;2023-06-22T04:47:13;7.85;;;7.07;;
70588;SDS011;58152;49.202;18.744;2023-06-22T04:49:38;9.88;;;6.43;;
70588;SDS011;58152;49.202;18.744;2023-06-22T04:52:09;9.23;;;7.05;;
70588;SDS011;58152;49.202;18.744;2023-06-22T04:54:36;8.13;;;7.18;;
70588;SDS011;58152;49.202;18.744;2023-06-22T04:57:02;9.32;;;7.65;;
70588;SDS011;58152;49.202;18.744;2023-06-22T04:59:29;10.57;;;8.07;;
70588;SDS011;58152;49.202;18.744;2023-06-22T05:01:56;9.13;;;7.03;;
70588;SDS011;58152;49.202;18.744;2023-06-22T05:04:25;9.70;;;8.18;;
70588;SDS011;58152;49.202;18.744;2023-06-22T05:06:52;7.85;;;6.57;;
70588;SDS011;58152;49.202;18.744;2023-06-22T05:09:18;11.77;;;6.95;;
70588;SDS011;58152;49.202;18.744;2023-06-22T05:11:44;10.73;;;7.72;;
70588;SDS011;58152;49.202;18.744;2023-06-22T05:14:10;10.77;;;8.15;;
70588;SDS011;58152;49.202;18.744;2023-06-22T05:16:36;10.90;;;8.40;;
70588;SDS011;58152;49.202;18.744;2023-06-22T05:19:02;11.60;;;10.40;;
70588;SDS011;58152;49.202;18.744;2023-06-22T05:21:29;11.30;;;8.77;;
70588;SDS011;58152;49.202;18.744;2023-06-22T05:23:55;10.27;;;8.13;;
70588;SDS011;58152;49.202;18.744;2023-06-22T05:26:25;10.90;;;8.25;;
70588;SDS011;58152;49.202;18.744;2023-06-22T05:28:54;10.32;;;9.23;;
70588;SDS011;58152;49.202;18.744;2023-06-22T05:31:20;11.88;;;8.73;;
70588;SDS011;58152;49.202;18.744;2023-06-22T05:33:46;9.85;;;8.65;;
70588;SDS011;58152;49.202;18.744;2023-06-22T05:36:18;11.45;;;8.90;;
70588;SDS011;58152;49.202;18.744;2023-06-22T05:45:25;11.43;;;8.63;;
70588;SDS011;58152;49.202;18.744;2023-06-22T05:55:34;10.20;;;9.13;;
70588;SDS011;58152;49.202;18.744;2023-06-22T06:05:28;9.50;;;8.50;;
70588;SDS011;58152;49.202;18.744;2023-06-22T06:14:51;13.57;;;9.30;;
70588;SDS011;58152;49.202;18.744;2023-06-22T06:17:23;13.10;;;10.32;;
70588;SDS011;58152;49.202;18.744;2023-06-22T06:20:12;11.70;;;10.45;;
70588;SDS011;58152;49.202;18.744;2023-06-22T06:22:49;14.75;;;10.93;;
70588;SDS011;58152;49.202;18.744;2023-06-22T06:25:18;10.93;;;9.75;;
70588;SDS011;58152;49.202;18.744;2023-06-22T06:27:46;11.55;;;10.38;;
70588;SDS011;58152;49.202;18.744;2023-06-22T06:33:17;12.68;;;10.98;;
70588;SDS011;58152;49.202;18.744;2023-06-22T06:35:46;14.23;;;11.30;;
70588;SDS011;58152;49.202;18.744;2023-06-22T06:38:13;12.70;;;11.20;;
70588;SDS011;58152;49.202;18.744;2023-06-22T06:40:42;12.90;;;11.60;;
70588;SDS011;58152;49.202;18.744;2023-06-22T06:43:09;11.85;;;10.57;;
70588;SDS011;58152;49.202;18.744;2023-06-22T06:45:38;10.77;;;9.68;;
70588;SDS011;58152;49.202;18.744;2023-06-22T06:48:05;12.75;;;10.65;;
70588;SDS011;58152;49.202;18.744;2023-06-22T06:50:34;12.02;;;8.88;;
70588;SDS011;58152;49.202;18.744;2023-06-22T06:53:04;11.57;;;9.90;;
70588;SDS011;58152;49.202;18.744;2023-06-22T06:55:39;10.27;;;9.20;;
70588;SDS011;58152;49.202;18.744;2023-06-22T06:58:07;10.98;;;9.75;;
70588;SDS011;58152;49.202;18.744;2023-06-22T07:00:38;9.32;;;8.00;;
70588;SDS011;58152;49.202;18.744;2023-06-22T07:03:08;10.13;;;8.45;;
70588;SDS011;58152;49.202;18.744;2023-06-22T07:05:43;9.18;;;7.28;;
70588;SDS011;58152;49.202;18.744;2023-06-22T07:08:58;9.02;;;6.10;;
70588;SDS011;58152;49.202;18.744;2023-06-22T07:11:32;8.40;;;7.05;;
70588;SDS011;58152;49.202;18.744;2023-06-22T07:14:07;8.15;;;6.28;;
70588;SDS011;58152;49.202;18.744;2023-06-22T07:16:32;7.63;;;6.50;;
70588;SDS011;58152;49.202;18.744;2023-06-22T07:19:01;8.82;;;6.10;;
70588;SDS011;58152;49.202;18.744;2023-06-22T07:21:29;6.90;;;6.20;;
70588;SDS011;58152;49.202;18.744;2023-06-22T07:23:57;6.10;;;4.72;;
70588;SDS011;58152;49.202;18.744;2023-06-22T07:26:24;7.22;;;5.65;;
70588;SDS011;58152;49.202;18.744;2023-06-22T07:28:50;6.05;;;5.18;;
70588;SDS011;58152;49.202;18.744;2023-06-22T07:31:28;5.80;;;5.10;;
70588;SDS011;58152;49.202;18.744;2023-06-22T07:33:56;6.57;;;5.70;;
70588;SDS011;58152;49.202;18.744;2023-06-22T07:36:29;6.07;;;5.45;;
70588;SDS011;58152;49.202;18.744;2023-06-22T07:38:56;5.00;;;4.50;;
70588;SDS011;58152;49.202;18.744;2023-06-22T07:41:21;6.22;;;4.75;;
70588;SDS011;58152;49.202;18.744;2023-06-22T07:43:47;6.45;;;5.03;;
70588;SDS011;58152;49.202;18.744;2023-06-22T07:46:13;9.75;;;8.65;;
70588;SDS011;58152;49.202;18.744;2023-06-22T07:48:39;10.45;;;8.57;;
70588;SDS011;58152;49.202;18.744;2023-06-22T07:51:09;9.93;;;6.57;;
70588;SDS011;58152;49.202;18.744;2023-06-22T07:53:37;6.78;;;5.35;;
70588;SDS011;58152;49.202;18.744;2023-06-22T07:56:05;6.70;;;5.95;;
70588;SDS011;58152;49.202;18.744;2023-06-22T07:58:34;5.45;;;4.95;;
70588;SDS011;58152;49.202;18.744;2023-06-22T08:01:00;7.25;;;5.63;;
70588;SDS011;58152;49.202;18.744;2023-06-22T08:03:41;6.47;;;5.80;;
70588;SDS011;58152;49.202;18.744;2023-06-22T08:06:11;7.93;;;5.78;;
70588;SDS011;58152;49.202;18.744;2023-06-22T08:08:43;7.70;;;5.60;;
70588;SDS011;58152;49.202;18.744;2023-06-22T08:11:12;8.27;;;6.45;;
70588;SDS011;58152;49.202;18.744;2023-06-22T08:13:40;7.40;;;6.03;;
70588;SDS011;58152;49.202;18.744;2023-06-22T08:16:13;235.02;;;213.68;;
70588;SDS011;58152;49.202;18.744;2023-06-22T08:18:39;219.23;;;199.68;;
70588;SDS011;58152;49.202;18.744;2023-06-22T08:21:13;98.63;;;88.95;;
70588;SDS011;58152;49.202;18.744;2023-06-22T08:23:47;40.78;;;36.90;;
70588;SDS011;58152;49.202;18.744;2023-06-22T08:26:16;20.80;;;18.65;;
70588;SDS011;58152;49.202;18.744;2023-06-22T08:28:43;13.63;;;10.07;;
70588;SDS011;58152;49.202;18.744;2023-06-22T08:31:08;10.32;;;7.22;;
70588;SDS011;58152;49.202;18.744;2023-06-22T08:33:34;7.18;;;6.13;;
70588;SDS011;58152;49.202;18.744;2023-06-22T08:36:00;6.65;;;5.50;;
70588;SDS011;58152;49.202;18.744;2023-06-22T08:38:25;5.65;;;4.72;;
70588;SDS011;58152;49.202;18.744;2023-06-22T08:40:51;6.97;;;6.28;;
70588;SDS011;58152;49.202;18.744;2023-06-22T08:43:17;6.10;;;5.50;;
70588;SDS011;58152;49.202;18.744;2023-06-22T08:45:45;7.43;;;6.10;;
70588;SDS011;58152;49.202;18.744;2023-06-22T08:48:13;7.35;;;6.63;;
70588;SDS011;58152;49.202;18.744;2023-06-22T08:50:39;8.98;;;6.07;;
70588;SDS011;58152;49.202;18.744;2023-06-22T08:53:05;8.23;;;6.35;;
70588;SDS011;58152;49.202;18.744;2023-06-22T08:55:33;8.35;;;6.65;;
70588;SDS011;58152;49.202;18.744;2023-06-22T08:57:58;9.00;;;7.88;;
70588;SDS011;58152;49.202;18.744;2023-06-22T09:00:24;8.05;;;7.15;;
70588;SDS011;58152;49.202;18.744;2023-06-22T09:02:49;8.93;;;8.02;;
70588;SDS011;58152;49.202;18.744;2023-06-22T09:05:15;9.57;;;8.05;;
70588;SDS011;58152;49.202;18.744;2023-06-22T09:07:41;7.90;;;7.10;;
70588;SDS011;58152;49.202;18.744;2023-06-22T09:10:07;7.72;;;7.00;;
70588;SDS011;58152;49.202;18.744;2023-06-22T09:12:33;8.48;;;7.57;;
70588;SDS011;58152;49.202;18.744;2023-06-22T09:14:59;8.52;;;7.55;;
70588;SDS011;58152;49.202;18.744;2023-06-22T09:17:28;7.72;;;6.97;;
70588;SDS011;58152;49.202;18.744;2023-06-22T09:19:56;8.95;;;7.75;;
70588;SDS011;58152;49.202;18.744;2023-06-22T09:22:23;9.48;;;8.00;;
70588;SDS011;58152;49.202;18.744;2023-06-22T09:25:09;8.45;;;7.47;;
70588;SDS011;58152;49.202;18.744;2023-06-22T09:27:34;8.80;;;8.00;;
70588;SDS011;58152;49.202;18.744;2023-06-22T09:30:00;8.75;;;7.85;;
70588;SDS011;58152;49.202;18.744;2023-06-22T09:32:25;9.48;;;8.50;;
70588;SDS011;58152;49.202;18.744;2023-06-22T09:34:51;9.25;;;8.35;;
70588;SDS011;58152;49.202;18.744;2023-06-22T09:37:16;10.73;;;9.27;;
70588;SDS011;58152;49.202;18.744;2023-06-22T09:39:42;8.77;;;7.97;;
70588;SDS011;58152;49.202;18.744;2023-06-22T09:42:07;8.50;;;7.70;;
70588;SDS011;58152;49.202;18.744;2023-06-22T09:44:33;8.68;;;7.88;;
70588;SDS011;58152;49.202;18.744;2023-06-22T09:46:58;9.35;;;8.55;;
70588;SDS011;58152;49.202;18.744;2023-06-22T09:49:24;9.52;;;8.63;;
70588;SDS011;58152;49.202;18.744;2023-06-22T09:51:51;9.10;;;8.30;;
70588;SDS011;58152;49.202;18.744;2023-06-22T09:54:17;9.07;;;8.18;;
70588;SDS011;58152;49.202;18.744;2023-06-22T09:56:42;8.75;;;7.95;;
70588;SDS011;58152;49.202;18.744;2023-06-22T09:59:08;9.70;;;8.80;;
70588;SDS011;58152;49.202;18.744;2023-06-22T10:01:33;9.68;;;8.73;;
70588;SDS011;58152;49.202;18.744;2023-06-22T10:03:59;9.40;;;8.43;;
70588;SDS011;58152;49.202;18.744;2023-06-22T10:06:24;9.98;;;9.07;;
70588;SDS011;58152;49.202;18.744;2023-06-22T10:08:50;9.02;;;8.13;;
70588;SDS011;58152;49.202;18.744;2023-06-22T10:11:16;10.18;;;9.25;;
70588;SDS011;58152;49.202;18.744;2023-06-22T10:13:42;8.93;;;8.02;;
70588;SDS011;58152;49.202;18.744;2023-06-22T10:16:07;9.35;;;8.45;;
70588;SDS011;58152;49.202;18.744;2023-06-22T10:18:33;12.25;;;8.85;;
70588;SDS011;58152;49.202;18.744;2023-06-22T10:20:59;9.07;;;8.20;;
70588;SDS011;58152;49.202;18.744;2023-06-22T10:23:25;10.88;;;8.88;;
70588;SDS011;58152;49.202;18.744;2023-06-22T10:25:50;9.90;;;9.00;;
70588;SDS011;58152;49.202;18.744;2023-06-22T10:28:16;10.10;;;9.10;;
70588;SDS011;58152;49.202;18.744;2023-06-22T10:30:41;9.43;;;8.18;;
70588;SDS011;58152;49.202;18.744;2023-06-22T10:33:07;9.02;;;8.18;;
70588;SDS011;58152;49.202;18.744;2023-06-22T10:35:33;9.15;;;8.32;;
70588;SDS011;58152;49.202;18.744;2023-06-22T10:37:59;9.73;;;8.15;;
70588;SDS011;58152;49.202;18.744;2023-06-22T10:40:27;8.80;;;7.97;;
70588;SDS011;58152;49.202;18.744;2023-06-22T10:42:52;9.27;;;8.38;;
70588;SDS011;58152;49.202;18.744;2023-06-22T10:45:18;7.72;;;7.03;;
70588;SDS011;58152;49.202;18.744;2023-06-22T10:47:43;9.70;;;8.18;;
70588;SDS011;58152;49.202;18.744;2023-06-22T10:50:09;9.93;;;8.95;;
70588;SDS011;58152;49.202;18.744;2023-06-22T10:52:35;10.23;;;9.27;;
70588;SDS011;58152;49.202;18.744;2023-06-22T10:55:00;10.27;;;9.27;;
70588;SDS011;58152;49.202;18.744;2023-06-22T10:57:26;10.77;;;9.18;;
70588;SDS011;58152;49.202;18.744;2023-06-22T10:59:51;9.27;;;8.38;;
70588;SDS011;58152;49.202;18.744;2023-06-22T11:02:16;9.55;;;8.50;;
70588;SDS011;58152;49.202;18.744;2023-06-22T11:04:42;8.60;;;7.80;;
70588;SDS011;58152;49.202;18.744;2023-06-22T11:07:08;8.95;;;8.25;;
70588;SDS011;58152;49.202;18.744;2023-06-22T11:09:34;9.50;;;8.43;;
70588;SDS011;58152;49.202;18.744;2023-06-22T11:11:59;7.93;;;7.22;;
70588;SDS011;58152;49.202;18.744;2023-06-22T11:14:25;7.90;;;7.10;;
70588;SDS011;58152;49.202;18.744;2023-06-22T11:16:50;8.82;;;8.02;;
70588;SDS011;58152;49.202;18.744;2023-06-22T11:19:16;9.38;;;8.38;;
70588;SDS011;58152;49.202;18.744;2023-06-22T11:21:42;9.02;;;8.23;;
70588;SDS011;58152;49.202;18.744;2023-06-22T11:24:07;8.43;;;7.68;;
70588;SDS011;58152;49.202;18.744;2023-06-22T11:26:33;7.95;;;7.25;;
70588;SDS011;58152;49.202;18.744;2023-06-22T11:28:59;10.00;;;9.00;;
70588;SDS011;58152;49.202;18.744;2023-06-22T11:31:25;8.43;;;7.55;;
70588;SDS011;58152;49.202;18.744;2023-06-22T11:33:50;8.25;;;7.45;;
70588;SDS011;58152;49.202;18.744;2023-06-22T11:36:16;8.50;;;7.70;;
70588;SDS011;58152;49.202;18.744;2023-06-22T11:38:42;8.18;;;7.47;;
70588;SDS011;58152;49.202;18.744;2023-06-22T11:41:08;10.80;;;7.38;;
70588;SDS011;58152;49.202;18.744;2023-06-22T11:43:34;8.00;;;7.20;;
70588;SDS011;58152;49.202;18.744;2023-06-22T11:46:01;6.45;;;5.95;;
70588;SDS011;58152;49.202;18.744;2023-06-22T11:48:28;6.55;;;5.93;;
70588;SDS011;58152;49.202;18.744;2023-06-22T11:50:55;7.15;;;6.35;;
70588;SDS011;58152;49.202;18.744;2023-06-22T11:53:21;6.32;;;5.72;;
70588;SDS011;58152;49.202;18.744;2023-06-22T11:55:49;6.22;;;5.72;;
70588;SDS011;58152;49.202;18.744;2023-06-22T11:58:14;7.43;;;6.68;;
70588;SDS011;58152;49.202;18.744;2023-06-22T12:00:40;6.60;;;6.00;;
70588;SDS011;58152;49.202;18.744;2023-06-22T12:03:06;7.05;;;6.43;;
70588;SDS011;58152;49.202;18.744;2023-06-22T12:05:32;6.88;;;6.18;;
70588;SDS011;58152;49.202;18.744;2023-06-22T12:07:57;7.53;;;6.82;;
70588;SDS011;58152;49.202;18.744;2023-06-22T12:10:23;10.05;;;8.25;;
70588;SDS011;58152;49.202;18.744;2023-06-22T12:12:48;8.43;;;7.55;;
70588;SDS011;58152;49.202;18.744;2023-06-22T12:15:13;6.80;;;6.20;;
70588;SDS011;58152;49.202;18.744;2023-06-22T12:17:39;6.82;;;6.22;;
70588;SDS011;58152;49.202;18.744;2023-06-22T12:20:05;6.90;;;6.20;;
70588;SDS011;58152;49.202;18.744;2023-06-22T12:22:32;6.72;;;6.15;;
70588;SDS011;58152;49.202;18.744;2023-06-22T12:24:57;84.88;;;77.50;;
70588;SDS011;58152;49.202;18.744;2023-06-22T12:27:23;143.60;;;130.98;;
70588;SDS011;58152;49.202;18.744;2023-06-22T12:29:48;55.40;;;50.50;;
70588;SDS011;58152;49.202;18.744;2023-06-22T12:32:14;17.70;;;16.17;;
70588;SDS011;58152;49.202;18.744;2023-06-22T12:34:42;8.25;;;7.47;;
70588;SDS011;58152;49.202;18.744;2023-06-22T12:37:08;6.22;;;5.72;;
70588;SDS011;58152;49.202;18.744;2023-06-22T12:39:33;6.60;;;5.63;;
70588;SDS011;58152;49.202;18.744;2023-06-22T12:41:59;7.68;;;5.88;;
70588;SDS011;58152;49.202;18.744;2023-06-22T12:44:24;6.63;;;6.00;;
70588;SDS011;58152;49.202;18.744;2023-06-22T12:46:50;5.80;;;5.30;;
70588;SDS011;58152;49.202;18.744;2023-06-22T12:49:15;8.95;;;6.93;;
70588;SDS011;58152;49.202;18.744;2023-06-22T12:51:41;5.80;;;5.30;;
70588;SDS011;58152;49.202;18.744;2023-06-22T12:54:07;5.57;;;5.07;;
70588;SDS011;58152;49.202;18.744;2023-06-22T12:56:33;5.03;;;4.53;;
70588;SDS011;58152;49.202;18.744;2023-06-22T12:58:58;5.22;;;4.82;;
70588;SDS011;58152;49.202;18.744;2023-06-22T13:01:26;6.18;;;5.03;;
70588;SDS011;58152;49.202;18.744;2023-06-22T13:03:52;5.57;;;5.07;;
70588;SDS011;58152;49.202;18.744;2023-06-22T13:06:18;5.88;;;4.65;;
70588;SDS011;58152;49.202;18.744;2023-06-22T13:08:43;5.82;;;5.30;;
70588;SDS011;58152;49.202;18.744;2023-06-22T13:11:08;6.18;;;5.57;;
70588;SDS011;58152;49.202;18.744;2023-06-22T13:13:34;6.05;;;5.45;;
70588;SDS011;58152;49.202;18.744;2023-06-22T13:15:59;5.10;;;4.60;;
70588;SDS011;58152;49.202;18.744;2023-06-22T13:18:25;6.65;;;5.22;;
70588;SDS011;58152;49.202;18.744;2023-06-22T13:20:50;5.95;;;5.38;;
70588;SDS011;58152;49.202;18.744;2023-06-22T13:23:16;5.32;;;4.70;;
70588;SDS011;58152;49.202;18.744;2023-06-22T13:25:41;5.18;;;4.70;;
70588;SDS011;58152;49.202;18.744;2023-06-22T13:28:07;5.53;;;5.03;;
70588;SDS011;58152;49.202;18.744;2023-06-22T13:30:33;5.22;;;4.38;;
70588;SDS011;58152;49.202;18.744;2023-06-22T13:32:58;5.32;;;4.82;;
70588;SDS011;58152;49.202;18.744;2023-06-22T13:35:24;5.30;;;4.90;;
70588;SDS011;58152;49.202;18.744;2023-06-22T13:37:49;5.53;;;4.35;;
70588;SDS011;58152;49.202;18.744;2023-06-22T13:40:15;5.47;;;4.97;;
70588;SDS011;58152;49.202;18.744;2023-06-22T13:42:40;5.43;;;4.93;;
70588;SDS011;58152;49.202;18.744;2023-06-22T13:45:06;5.90;;;5.30;;
70588;SDS011;58152;49.202;18.744;2023-06-22T13:47:32;5.10;;;4.63;;
70588;SDS011;58152;49.202;18.744;2023-06-22T13:49:58;5.18;;;4.78;;
70588;SDS011;58152;49.202;18.744;2023-06-22T13:52:24;5.22;;;4.82;;
70588;SDS011;58152;49.202;18.744;2023-06-22T13:54:49;4.95;;;4.55;;
70588;SDS011;58152;49.202;18.744;2023-06-22T13:57:15;5.57;;;5.07;;
70588;SDS011;58152;49.202;18.744;2023-06-22T13:59:40;5.55;;;4.85;;
70588;SDS011;58152;49.202;18.744;2023-06-22T14:02:06;5.20;;;4.80;;
70588;SDS011;58152;49.202;18.744;2023-06-22T14:04:31;5.25;;;4.75;;
70588;SDS011;58152;49.202;18.744;2023-06-22T14:06:57;5.75;;;4.60;;
70588;SDS011;58152;49.202;18.744;2023-06-22T14:09:22;6.72;;;5.32;;
70588;SDS011;58152;49.202;18.744;2023-06-22T14:11:48;5.18;;;4.63;;
70588;SDS011;58152;49.202;18.744;2023-06-22T14:14:13;5.68;;;5.10;;
70588;SDS011;58152;49.202;18.744;2023-06-22T14:16:38;5.68;;;5.05;;
70588;SDS011;58152;49.202;18.744;2023-06-22T14:19:04;5.47;;;4.97;;
70588;SDS011;58152;49.202;18.744;2023-06-22T14:21:29;5.40;;;4.90;;
70588;SDS011;58152;49.202;18.744;2023-06-22T14:23:55;5.47;;;4.97;;
70588;SDS011;58152;49.202;18.744;2023-06-22T14:26:20;7.53;;;4.97;;
70588;SDS011;58152;49.202;18.744;2023-06-22T14:28:46;5.38;;;4.88;;
70588;SDS011;58152;49.202;18.744;2023-06-22T14:31:14;5.03;;;4.60;;
70588;SDS011;58152;49.202;18.744;2023-06-22T14:33:40;4.53;;;4.15;;
70588;SDS011;58152;49.202;18.744;2023-06-22T14:36:05;118.13;;;107.80;;
70588;SDS011;58152;49.202;18.744;2023-06-22T14:38:31;100.78;;;92.47;;
70588;SDS011;58152;49.202;18.744;2023-06-22T14:40:57;36.35;;;33.40;;
70588;SDS011;58152;49.202;18.744;2023-06-22T14:43:22;11.32;;;10.27;;
70588;SDS011;58152;49.202;18.744;2023-06-22T14:45:48;6.22;;;5.63;;
70588;SDS011;58152;49.202;18.744;2023-06-22T14:48:13;5.55;;;5.05;;
70588;SDS011;58152;49.202;18.744;2023-06-22T14:50:38;4.93;;;4.47;;
70588;SDS011;58152;49.202;18.744;2023-06-22T14:53:04;5.53;;;5.03;;
70588;SDS011;58152;49.202;18.744;2023-06-22T14:55:29;6.50;;;4.68;;
70588;SDS011;58152;49.202;18.744;2023-06-22T14:57:55;5.25;;;4.75;;
70588;SDS011;58152;49.202;18.744;2023-06-22T15:00:20;4.88;;;4.47;;
70588;SDS011;58152;49.202;18.744;2023-06-22T15:02:46;4.82;;;4.35;;
70588;SDS011;58152;49.202;18.744;2023-06-22T15:05:11;6.20;;;4.70;;
70588;SDS011;58152;49.202;18.744;2023-06-22T15:07:37;5.40;;;4.47;;
70588;SDS011;58152;49.202;18.744;2023-06-22T15:10:02;5.65;;;4.80;;
70588;SDS011;58152;49.202;18.744;2023-06-22T15:12:28;5.85;;;5.28;;
70588;SDS011;58152;49.202;18.744;2023-06-22T15:14:53;4.97;;;4.55;;